Time;durP1;ratioP1;P1;durP2;ratioP2;P2;SDS_P1;SDS_P2;PMS_P1;PMS_P2;Temp;Humidity;BMP_temperature;BMP_pressure;BME280_temperature;BME280_humidity;BME280_pressure;Samples;Min_cycle;Max_cycle;Signal;HPM_P1;HPM_P2
2021/06/11 00:00:55;;;;;;;5.85;5.00;;;;;;;17.26;70.41;99375.66;3411703;29;20043;-74
2021/06/11 00:02:36;;;;;;;6.57;4.88;;;;;;;17.26;70.60;99375.66;3414824;29;20043;-75
2021/06/11 00:04:17;;;;;;;21.83;14.68;;;;;;;17.25;70.56;99365.97;3414778;29;20390;-75
2021/06/11 00:05:58;;;;;;;39.97;27.92;;;;;;;17.24;70.77;99369.69;3414460;29;20387;-74
2021/06/11 00:07:38;;;;;;;30.17;23.85;;;;;;;17.25;70.46;99370.53;3401380;29;20040;-74
2021/06/11 00:09:19;;;;;;;16.13;11.63;;;;;;;17.25;70.48;99374.03;3414213;29;20103;-74
2021/06/11 00:11:00;;;;;;;17.88;8.38;;;;;;;17.23;70.63;99363.50;3414254;29;20046;-73
2021/06/11 00:12:41;;;;;;;10.38;8.40;;;;;;;17.25;70.80;99375.94;3409885;29;20086;-76
2021/06/11 00:14:22;;;;;;;7.65;6.45;;;;;;;17.25;70.73;99365.16;3403728;29;20047;-73
2021/06/11 00:16:03;;;;;;;8.80;5.78;;;;;;;17.24;70.92;99367.00;3406683;29;20142;-73
2021/06/11 00:17:44;;;;;;;8.23;5.07;;;;;;;17.26;71.11;99372.16;3417100;29;20506;-73
2021/06/11 00:19:25;;;;;;;5.55;4.80;;;;;;;17.25;70.97;99371.34;3416985;29;20061;-76
2021/06/11 00:21:06;;;;;;;8.30;4.85;;;;;;;17.25;70.93;99368.66;3417293;29;20039;-73
2021/06/11 00:22:47;;;;;;;5.93;4.88;;;;;;;17.25;70.86;99368.66;3416588;29;20058;-74
2021/06/11 00:24:28;;;;;;;6.13;5.40;;;;;;;17.25;70.94;99363.28;3417121;29;20132;-74
2021/06/11 00:26:09;;;;;;;8.70;5.20;;;;;;;17.25;70.65;99371.34;3418000;29;20055;-74
2021/06/11 00:27:54;;;;;;;6.38;4.90;;;;;;;17.25;70.75;99373.25;3417538;29;20047;-74
2021/06/11 00:29:35;;;;;;;6.60;4.75;;;;;;;17.23;70.81;99368.91;3403024;29;20056;-75
2021/06/11 00:31:16;;;;;;;5.38;4.72;;;;;;;17.22;70.65;99363.78;3400518;29;20051;-74
2021/06/11 00:32:57;;;;;;;10.55;5.43;;;;;;;17.22;70.69;99366.47;3413239;29;20047;-74
2021/06/11 00:34:38;;;;;;;7.53;4.68;;;;;;;17.20;70.43;99366.69;3416975;28;20418;-75
2021/06/11 00:36:18;;;;;;;8.70;4.80;;;;;;;17.21;70.46;99362.13;3417159;29;20043;-75
2021/06/11 00:38:00;;;;;;;7.63;5.38;;;;;;;17.19;70.82;99358.84;3416719;29;20043;-75
2021/06/11 00:39:40;;;;;;;5.68;4.75;;;;;;;17.19;70.71;99358.84;3417301;29;20043;-75
2021/06/11 00:41:21;;;;;;;7.25;4.90;;;;;;;17.18;70.43;99357.22;3416282;29;20035;-74
2021/06/11 00:43:02;;;;;;;8.30;5.55;;;;;;;17.19;70.35;99358.84;3402175;29;20126;-75
2021/06/11 00:44:43;;;;;;;8.15;4.93;;;;;;;17.19;70.61;99359.69;3414091;29;20058;-74
2021/06/11 00:46:24;;;;;;;6.25;5.13;;;;;;;17.17;70.44;99361.00;3402089;29;20514;-74
2021/06/11 00:48:06;;;;;;;6.88;4.63;;;;;;;17.18;70.69;99358.03;3399842;29;20104;-74
2021/06/11 00:49:48;;;;;;;5.22;4.45;;;;;;;17.17;70.40;99361.00;3414028;29;20384;-75
2021/06/11 00:51:29;;;;;;;6.78;5.57;;;;;;;17.19;70.42;99358.84;3416519;29;20039;-74
2021/06/11 00:53:10;;;;;;;6.07;4.90;;;;;;;17.18;70.65;99354.53;3388889;29;20055;-74
2021/06/11 00:54:51;;;;;;;10.32;4.88;;;;;;;17.19;70.71;99356.16;3411611;29;20094;-75
2021/06/11 00:56:32;;;;;;;6.53;4.43;;;;;;;17.19;70.89;99358.84;3416529;29;20046;-74
2021/06/11 00:58:15;;;;;;;6.72;4.35;;;;;;;17.19;70.62;99348.06;3415553;29;20047;-75
2021/06/11 00:59:56;;;;;;;6.00;5.32;;;;;;;17.18;70.20;99349.97;3416157;29;20043;-74
2021/06/11 01:01:36;;;;;;;4.90;4.03;;;;;;;17.16;70.24;99348.56;3416628;29;20419;-74
2021/06/11 01:03:18;;;;;;;7.32;4.72;;;;;;;17.16;70.47;99359.34;3416281;29;20517;-74
2021/06/11 01:04:58;;;;;;;8.10;5.75;;;;;;;17.16;70.47;99370.94;3416300;29;20134;-74
2021/06/11 01:06:41;;;;;;;6.80;4.80;;;;;;;17.18;70.33;99368.81;3416651;29;20151;-74
2021/06/11 01:08:22;;;;;;;5.65;4.78;;;;;;;17.17;70.53;99361.00;3402053;29;20044;-74
2021/06/11 01:10:04;;;;;;;6.32;4.63;;;;;;;17.15;70.37;99373.88;3402332;29;20526;-76
2021/06/11 01:11:45;;;;;;;;;;;;;;;17.22;70.26;99358.38;3414190;29;20046;-76
2021/06/11 01:13:26;;;;;;;7.45;4.22;;;;;;;17.15;69.98;99361.22;3401910;29;19918;-74
2021/06/11 01:15:07;;;;;;;5.95;4.63;;;;;;;17.15;70.16;99368.50;3399229;29;20592;-74
2021/06/11 01:16:48;;;;;;;6.43;4.15;;;;;;;17.10;70.22;99354.97;3413875;29;20043;-75
2021/06/11 01:18:29;;;;;;;5.32;4.72;;;;;;;17.13;70.32;99367.91;3416463;28;20092;-75
2021/06/11 01:20:12;;;;;;;5.65;4.05;;;;;;;17.12;70.62;99363.63;3402328;29;20099;-75
2021/06/11 01:22:03;;;;;;;5.97;4.57;;;;;;;17.13;70.45;99365.22;3399682;29;20563;-76
2021/06/11 01:24:13;;;;;;;8.88;4.70;;;;;;;17.12;70.43;99360.91;3400790;29;20054;-75
2021/06/11 01:26:25;;;;;;;6.90;4.45;;;;;;;17.13;70.38;99365.22;3403823;29;20164;-76
2021/06/11 01:28:07;;;;;;;5.03;3.97;;;;;;;17.06;70.05;99356.50;3376251;29;20052;-76
2021/06/11 01:29:52;;;;;;;5.72;4.38;;;;;;;17.08;70.30;99365.16;3398142;29;20078;-75
2021/06/11 01:31:36;;;;;;;6.53;4.25;;;;;;;17.06;70.00;99359.19;3389587;29;20040;-75
2021/06/11 01:33:18;;;;;;;6.93;4.40;;;;;;;17.03;70.19;99359.69;3386468;29;20099;-76
2021/06/11 01:34:58;;;;;;;;;;;;;;;17.13;69.85;99354.47;3386950;29;20562;-77
2021/06/11 01:36:45;;;;;;;7.18;4.28;;;;;;;17.04;70.20;99359.44;3403727;29;19997;-76
2021/06/11 01:38:31;;;;;;;4.78;4.20;;;;;;;17.04;69.87;99364.00;3415598;29;20047;-76
2021/06/11 01:40:12;;;;;;;6.15;4.60;;;;;;;17.04;70.08;99362.13;3376255;29;20051;-74
2021/06/11 01:41:54;;;;;;;6.22;4.10;;;;;;;17.04;70.18;99361.31;3397928;29;20526;-76
2021/06/11 01:43:36;;;;;;;5.93;4.70;;;;;;;17.00;70.25;99356.41;3388835;29;20048;-76
2021/06/11 01:45:17;;;;;;;5.13;4.63;;;;;;;17.02;70.19;99358.88;3386303;29;20127;-75
2021/06/11 01:46:59;;;;;;;5.10;4.55;;;;;;;17.04;70.17;99366.69;3403700;29;20051;-76
2021/06/11 01:48:39;;;;;;;;;;;;;;;17.11;69.97;99362.78;3402704;29;20053;-75
2021/06/11 01:50:24;;;;;;;7.00;4.43;;;;;;;17.06;69.73;99372.66;3399441;29;19915;-76
2021/06/11 01:52:06;;;;;;;8.93;4.88;;;;;;;17.02;69.94;99366.94;3413621;29;20122;-77
2021/06/11 01:53:48;;;;;;;5.38;3.85;;;;;;;17.06;70.08;99376.16;3402119;29;20052;-76
2021/06/11 01:55:29;;;;;;;5.25;4.72;;;;;;;17.05;69.80;99374.53;3401861;29;20625;-75
2021/06/11 01:57:11;;;;;;;4.80;4.28;;;;;;;17.07;69.75;99371.59;3398919;29;20042;-77
2021/06/11 01:58:52;;;;;;;4.97;4.00;;;;;;;17.05;69.73;99365.66;3402343;29;20047;-77
2021/06/11 02:00:33;;;;;;;6.30;4.33;;;;;;;17.07;69.98;99368.91;3412701;29;20102;-75
2021/06/11 02:02:14;;;;;;;4.60;3.60;;;;;;;17.09;69.77;99372.16;3418102;29;20111;-76
2021/06/11 02:03:55;;;;;;;5.90;4.50;;;;;;;17.09;69.85;99369.47;3415704;29;20043;-76
2021/06/11 02:05:37;;;;;;;9.75;6.80;;;;;;;17.10;70.21;99373.81;3416429;29;20091;-77
2021/06/11 02:07:18;;;;;;;7.40;4.28;;;;;;;17.11;70.24;99368.16;3409083;29;20027;-76
2021/06/11 02:08:59;;;;;;;6.60;4.25;;;;;;;17.12;70.14;99379.78;3414157;29;20632;-74
2021/06/11 02:10:41;;;;;;;9.90;4.82;;;;;;;17.14;70.23;99378.47;3404241;29;20054;-74
2021/06/11 02:12:21;;;;;;;9.13;5.43;;;;;;;17.17;70.27;99377.16;3388616;29;20043;-75
2021/06/11 02:14:03;;;;;;;7.22;4.50;;;;;;;17.18;70.17;99378.78;3399252;29;20146;-75
2021/06/11 02:15:44;;;;;;;8.90;4.43;;;;;;;17.19;69.98;99377.69;3388943;29;20126;-74
2021/06/11 02:17:25;;;;;;;5.00;4.03;;;;;;;17.19;69.79;99380.41;3387389;29;20512;-75
2021/06/11 02:19:06;;;;;;;6.65;4.53;;;;;;;17.19;69.73;99380.41;3387575;29;20036;-75
2021/06/11 02:20:47;;;;;;;4.05;3.55;;;;;;;17.17;69.85;99369.88;3402230;29;20046;-75
2021/06/11 02:22:27;;;;;;;6.10;4.13;;;;;;;17.17;70.12;99374.47;3412727;29;20047;-74
2021/06/11 02:24:08;;;;;;;4.50;4.10;;;;;;;17.19;70.01;99383.09;3415714;29;20442;-75
2021/06/11 02:25:49;;;;;;;5.10;4.20;;;;;;;17.18;69.84;99376.09;3401380;29;20566;-75
2021/06/11 02:27:32;;;;;;;5.75;3.88;;;;;;;17.19;69.60;99386.63;3411985;29;20039;-76
2021/06/11 02:29:12;;;;;;;5.05;3.88;;;;;;;17.20;69.62;99387.44;3401188;29;20119;-76
2021/06/11 02:30:53;;;;;;;4.85;4.25;;;;;;;17.18;69.38;99379.59;3411904;29;20146;-75
2021/06/11 02:32:36;;;;;;;6.03;4.03;;;;;;;17.19;69.79;99383.09;3415427;29;20113;-74
2021/06/11 02:34:17;;;;;;;6.53;3.83;;;;;;;17.17;69.82;99383.34;3401410;29;20084;-74
2021/06/11 02:35:58;;;;;;;5.32;4.07;;;;;;;17.20;69.74;99390.94;3412438;29;20418;-75
2021/06/11 02:37:39;;;;;;;7.28;4.28;;;;;;;17.19;69.50;99380.41;3415109;29;20070;-75
2021/06/11 02:39:20;;;;;;;6.03;4.35;;;;;;;17.19;69.66;99389.31;3415412;29;20513;-75
2021/06/11 02:41:03;;;;;;;5.00;4.22;;;;;;;17.21;69.52;99383.66;3415057;29;20049;-75
2021/06/11 02:42:47;;;;;;;6.20;4.35;;;;;;;17.21;69.15;99383.66;3388161;29;20040;-75
2021/06/11 02:44:31;;;;;;;5.38;4.15;;;;;;;17.20;69.55;99388.25;3385367;29;20044;-76
2021/06/11 02:46:22;;;;;;;6.05;4.53;;;;;;;17.21;69.53;99383.66;3396503;29;20636;-76
2021/06/11 02:48:20;;;;;;;7.88;5.13;;;;;;;17.24;69.48;99388.56;3399339;29;20052;-75
2021/06/11 02:50:04;;;;;;;6.03;4.38;;;;;;;17.24;69.48;99393.94;3400883;29;20050;-73
2021/06/11 02:51:48;;;;;;;5.13;4.63;;;;;;;17.22;69.16;99379.94;3401203;29;20043;-73
2021/06/11 02:53:30;;;;;;;6.22;4.28;;;;;;;17.24;69.09;99388.56;3412982;29;20043;-74
2021/06/11 02:55:14;;;;;;;5.63;4.53;;;;;;;17.25;69.15;99384.00;3399787;29;20047;-73
2021/06/11 02:57:17;;;;;;;5.47;4.22;;;;;;;17.29;69.25;99375.16;3412159;29;20047;-74
2021/06/11 02:59:01;;;;;;;4.00;3.60;;;;;;;17.29;69.51;99385.13;3412267;29;20043;-74
2021/06/11 03:00:43;;;;;;;6.20;4.07;;;;;;;17.26;69.45;99375.66;3415124;29;20137;-74
2021/06/11 03:02:29;;;;;;;8.50;4.72;;;;;;;17.28;69.22;99378.94;3414946;29;20043;-74
2021/06/11 03:04:11;;;;;;;6.15;4.35;;;;;;;17.26;69.20;99380.25;3415257;29;20046;-74
2021/06/11 03:05:54;;;;;;;11.13;4.65;;;;;;;17.26;69.35;99372.97;3387828;29;20123;-72
2021/06/11 03:07:36;;;;;;;5.85;4.20;;;;;;;17.28;69.59;99384.31;3409697;29;20051;-74
2021/06/11 03:09:20;;;;;;;6.90;3.83;;;;;;;17.26;69.65;99381.06;3398791;29;20467;-75
2021/06/11 03:11:07;;;;;;;5.72;4.00;;;;;;;17.25;69.75;99379.44;3374597;29;20151;-75
2021/06/11 03:12:48;;;;;;;7.85;3.90;;;;;;;17.28;69.66;99384.31;3395584;29;20059;-74
2021/06/11 03:14:29;;;;;;;6.32;4.35;;;;;;;17.26;69.50;99381.06;3398355;29;20039;-74
2021/06/11 03:16:10;;;;;;;33.92;24.45;;;;;;;17.30;69.64;99387.59;3412361;29;20043;-74
2021/06/11 03:17:54;;;;;;;19.65;14.48;;;;;;;17.28;69.51;99387.00;3414290;29;20418;-73
2021/06/11 03:19:36;;;;;;;13.48;9.40;;;;;;;17.31;69.69;99381.13;3399970;29;20046;-74
2021/06/11 03:21:19;;;;;;;9.45;8.02;;;;;;;17.31;69.64;99389.22;3398720;29;20524;-75
2021/06/11 03:23:17;;;;;;;6.72;5.50;;;;;;;17.35;69.34;99387.66;3387540;29;20407;-74
2021/06/11 03:25:08;;;;;;;5.68;4.63;;;;;;;17.35;69.73;99394.94;3387267;29;20052;-74
2021/06/11 03:26:54;;;;;;;5.97;4.38;;;;;;;17.35;69.63;99384.16;3387770;29;20419;-73
2021/06/11 03:28:43;;;;;;;7.85;5.60;;;;;;;17.37;69.49;99390.09;3393261;29;20043;-74
2021/06/11 03:30:26;;;;;;;5.03;4.35;;;;;;;17.36;69.86;99386.59;3413301;29;20062;-73
2021/06/11 03:32:13;;;;;;;7.55;4.28;;;;;;;17.37;69.70;99392.78;3400787;29;20050;-73
2021/06/11 03:33:56;;;;;;;6.38;3.65;;;;;;;17.34;69.51;99401.38;3412632;29;20043;-74
2021/06/11 03:35:42;;;;;;;7.43;5.05;;;;;;;17.36;69.38;99401.94;3399949;29;20042;-74
2021/06/11 03:37:27;;;;;;;8.88;4.75;;;;;;;17.35;69.25;99400.34;3412324;29;20459;-74
2021/06/11 03:39:14;;;;;;;5.50;4.30;;;;;;;17.34;69.62;99394.09;3396889;29;20047;-73
2021/06/11 03:40:56;;;;;;;4.95;3.88;;;;;;;17.34;69.53;99398.69;3398387;29;20122;-74
2021/06/11 03:42:37;;;;;;;6.18;4.00;;;;;;;17.34;69.37;99404.06;3396680;29;20040;-75
2021/06/11 03:44:19;;;;;;;6.63;4.57;;;;;;;17.33;69.47;99397.88;3411546;29;20055;-73
2021/06/11 03:46:01;;;;;;;8.13;4.45;;;;;;;17.35;69.68;99406.53;3399862;29;20536;-75
2021/06/11 03:47:43;;;;;;;5.18;4.53;;;;;;;17.34;69.45;99399.50;3412121;29;20145;-72
2021/06/11 03:49:24;;;;;;;13.07;5.07;;;;;;;17.35;69.70;99403.03;3414579;29;20058;-73
2021/06/11 03:51:06;;;;;;;9.93;3.97;;;;;;;17.34;69.73;99399.50;3400545;29;20497;-73
2021/06/11 03:52:49;;;;;;;10.75;4.80;;;;;;;17.34;69.84;99401.38;3411699;28;20115;-75
2021/06/11 03:54:30;;;;;;;7.97;4.55;;;;;;;17.36;69.79;99399.25;3388131;29;20043;-73
2021/06/11 03:56:12;;;;;;;5.78;4.65;;;;;;;17.36;69.64;99402.75;3385667;29;20507;-74
2021/06/11 03:57:53;;;;;;;;;;;;;;;17.44;69.65;99404.22;3385936;29;20052;-75
2021/06/11 03:59:34;;;;;;;5.43;4.93;;;;;;;17.37;69.74;99399.03;3385216;29;19930;-74
2021/06/11 04:01:20;;;;;;;6.47;4.70;;;;;;;17.37;70.02;99404.41;3384973;29;20096;-74
2021/06/11 04:03:01;;;;;;;9.85;4.53;;;;;;;17.37;69.66;99406.25;3399454;29;20044;-75
2021/06/11 04:04:41;;;;;;;4.85;4.20;;;;;;;17.37;69.88;99403.56;3411614;29;20042;-74
2021/06/11 04:06:26;;;;;;;7.65;4.30;;;;;;;17.35;69.90;99401.13;3414932;29;20040;-76
2021/06/11 04:08:10;;;;;;;6.65;4.68;;;;;;;17.34;69.87;99398.69;3387990;29;20048;-75
2021/06/11 04:10:00;;;;;;;6.38;4.88;;;;;;;17.34;69.92;99401.38;3396490;29;20407;-74
2021/06/11 04:11:53;;;;;;;6.90;4.88;;;;;;;17.34;70.16;99409.47;3415133;29;20053;-74
2021/06/11 04:13:54;;;;;;;5.55;4.82;;;;;;;17.33;69.96;99403.25;3413848;29;20050;-74
2021/06/11 04:15:36;;;;;;;9.13;5.07;;;;;;;17.31;70.12;99397.28;3400319;29;20036;-74
2021/06/11 04:17:25;;;;;;;5.85;4.78;;;;;;;17.33;70.44;99397.88;3398014;29;20082;-73
2021/06/11 04:19:10;;;;;;;11.77;5.40;;;;;;;17.33;70.48;99399.75;3398609;29;20056;-72
2021/06/11 04:20:54;;;;;;;9.07;4.80;;;;;;;17.31;70.39;99399.97;3398324;29;20091;-72
2021/06/11 04:22:35;;;;;;;9.27;4.25;;;;;;;17.34;70.51;99404.06;3412074;29;20138;-73
2021/06/11 04:24:16;;;;;;;7.28;5.15;;;;;;;17.35;70.42;99395.75;3399812;29;20546;-74
2021/06/11 04:25:59;;;;;;;6.90;4.63;;;;;;;17.35;70.59;99403.03;3396994;29;20627;-73
2021/06/11 04:27:41;;;;;;;7.88;4.63;;;;;;;17.35;70.53;99406.53;3384727;29;20062;-72
2021/06/11 04:29:23;;;;;;;7.03;4.78;;;;;;;17.36;70.89;99404.66;3409243;29;20053;-74
2021/06/11 04:31:04;;;;;;;5.30;4.80;;;;;;;17.37;70.98;99404.41;3414809;29;20127;-71
2021/06/11 04:32:45;;;;;;;5.63;4.03;;;;;;;17.38;71.01;99395.25;3400019;29;20054;-72
2021/06/11 04:34:26;;;;;;;11.25;4.95;;;;;;;17.38;70.94;99400.66;3411628;29;20384;-70
2021/06/11 04:36:09;;;;;;;5.53;4.85;;;;;;;17.39;71.11;99396.88;3414007;29;20179;-71
2021/06/11 04:37:50;;;;;;;6.30;4.80;;;;;;;17.40;70.83;99403.91;3414424;29;20125;-71
2021/06/11 04:39:31;;;;;;;5.85;4.15;;;;;;;17.42;70.77;99409.88;3414286;29;20051;-71
2021/06/11 04:41:12;;;;;;;6.13;4.82;;;;;;;17.40;70.87;99395.81;3414315;29;20522;-71
2021/06/11 04:42:53;;;;;;;7.80;5.63;;;;;;;17.43;71.02;99400.72;3399690;29;20044;-71
2021/06/11 04:44:34;;;;;;;6.03;4.60;;;;;;;17.44;71.19;99393.44;3411677;29;20110;-73
2021/06/11 04:46:15;;;;;;;5.32;4.00;;;;;;;17.46;70.72;99417.47;3413560;28;20052;-72
2021/06/11 04:47:56;;;;;;;9.32;4.63;;;;;;;17.46;71.00;99406.69;3414174;29;20384;-71
2021/06/11 04:49:36;;;;;;;6.63;4.57;;;;;;;17.47;71.06;99402.91;3414135;29;20043;-71
2021/06/11 04:51:17;;;;;;;5.63;5.07;;;;;;;17.46;71.47;99404.00;3414427;29;20091;-73
2021/06/11 04:52:58;;;;;;;5.55;4.15;;;;;;;17.54;72.26;99398.19;3400263;29;20534;-70
2021/06/11 04:54:39;;;;;;;6.00;4.07;;;;;;;17.61;72.31;99396.13;3399501;29;20051;-70
2021/06/11 04:56:19;;;;;;;5.75;4.32;;;;;;;17.67;71.92;99403.22;3413608;29;20530;-70
2021/06/11 04:58:00;;;;;;;5.43;4.05;;;;;;;17.69;71.37;99406.47;3416503;29;20043;-71
2021/06/11 04:59:41;;;;;;;5.10;4.32;;;;;;;17.71;71.59;99400.81;3402438;29;20490;-70
2021/06/11 05:01:22;;;;;;;5.07;4.43;;;;;;;17.71;71.66;99407.06;3413794;29;20054;-71
2021/06/11 05:03:03;;;;;;;5.82;4.85;;;;;;;17.72;71.22;99405.97;3416278;29;20051;-70
2021/06/11 05:04:43;;;;;;;4.60;3.70;;;;;;;17.69;71.27;99406.47;3416407;29;20046;-69
2021/06/11 05:06:24;;;;;;;4.60;3.72;;;;;;;17.73;70.88;99409.47;3416666;29;20130;-70
2021/06/11 05:08:05;;;;;;;6.82;3.78;;;;;;;17.70;71.14;99408.09;3415757;29;20051;-71
2021/06/11 05:09:46;;;;;;;3.63;3.33;;;;;;;17.72;71.13;99407.88;3415764;29;20058;-71
2021/06/11 05:11:26;;;;;;;8.75;3.72;;;;;;;17.69;70.84;99397.59;3416578;29;20075;-70
2021/06/11 05:13:07;;;;;;;7.15;5.50;;;;;;;17.72;71.18;99400.59;3416680;29;20090;-69
2021/06/11 05:14:48;;;;;;;9.13;6.40;;;;;;;17.74;71.31;99403.06;3416783;29;20043;-67
2021/06/11 05:16:29;;;;;;;8.95;5.40;;;;;;;17.75;71.17;99405.47;3416245;29;20134;-65
2021/06/11 05:18:09;;;;;;;6.55;4.53;;;;;;;17.76;71.17;99403.59;3415143;29;20039;-71
2021/06/11 05:19:50;;;;;;;6.25;4.25;;;;;;;17.77;71.14;99403.34;3402096;29;20063;-70
2021/06/11 05:21:31;;;;;;;6.80;4.28;;;;;;;17.78;71.06;99410.38;3413709;29;20541;-69
2021/06/11 05:23:12;;;;;;;7.07;4.05;;;;;;;17.80;71.10;99408.28;3415297;29;20581;-69
2021/06/11 05:24:53;;;;;;;8.23;4.47;;;;;;;17.81;71.27;99401.84;3416061;29;20090;-68
2021/06/11 05:26:34;;;;;;;4.57;3.50;;;;;;;17.83;70.94;99399.69;3416347;29;20078;-69
2021/06/11 05:28:15;;;;;;;3.88;3.47;;;;;;;17.84;71.12;99404.03;3402359;29;20977;-69
2021/06/11 05:29:56;;;;;;;5.63;3.38;;;;;;;17.85;70.67;99402.94;3406061;28;20610;-75
2021/06/11 05:31:36;;;;;;;4.30;3.47;;;;;;;17.87;70.88;99397.31;3403178;29;20067;-70
2021/06/11 05:33:17;;;;;;;5.75;3.80;;;;;;;17.91;70.52;99405.72;3410618;29;20379;-69
2021/06/11 05:34:58;;;;;;;6.07;4.03;;;;;;;17.93;70.71;99403.59;3415966;29;20043;-70
2021/06/11 05:36:39;;;;;;;8.02;4.55;;;;;;;17.95;71.10;99401.47;3416207;29;20134;-70
2021/06/11 05:38:20;;;;;;;8.48;4.85;;;;;;;17.96;70.94;99411.19;3416211;29;20047;-69
2021/06/11 05:40:00;;;;;;;4.63;3.75;;;;;;;17.96;70.60;99401.19;3416269;29;20094;-69
2021/06/11 05:41:41;;;;;;;5.47;4.07;;;;;;;17.96;70.69;99395.81;3416070;29;20051;-69
2021/06/11 05:43:22;;;;;;;4.68;4.18;;;;;;;17.96;70.55;99398.50;3415496;29;20106;-69
2021/06/11 05:45:04;;;;;;;6.72;3.58;;;;;;;17.96;70.65;99401.19;3415912;29;20043;-69
2021/06/11 05:46:45;;;;;;;;;;;;;;;18.04;70.71;99402.66;3402449;29;20416;-68
2021/06/11 05:48:25;;;;;;;8.52;4.30;;;;;;;18.01;70.31;99403.16;3413265;29;19977;-69
2021/06/11 05:50:08;;;;;;;7.13;4.25;;;;;;;18.02;70.54;99400.22;3402057;29;20427;-69
2021/06/11 05:51:50;;;;;;;5.07;3.67;;;;;;;18.03;70.27;99406.44;3413245;29;20071;-69
2021/06/11 05:53:31;;;;;;;4.53;3.97;;;;;;;18.05;70.26;99404.28;3415301;29;20066;-69
2021/06/11 05:55:14;;;;;;;4.57;3.47;;;;;;;18.06;70.13;99405.91;3416032;29;20104;-69
2021/06/11 05:56:57;;;;;;;5.35;4.47;;;;;;;18.07;70.42;99396.75;3415882;29;20046;-70
2021/06/11 05:58:38;;;;;;;5.78;3.92;;;;;;;18.08;70.28;99399.22;3416078;29;20134;-69
2021/06/11 06:00:20;;;;;;;5.87;4.40;;;;;;;18.06;70.21;99397.81;3415896;29;20418;-69
2021/06/11 06:02:00;;;;;;;4.45;4.05;;;;;;;18.07;69.94;99402.13;3415733;29;20047;-70
2021/06/11 06:03:42;;;;;;;4.20;3.80;;;;;;;18.09;69.93;99400.00;3401359;29;20046;-69
2021/06/11 06:05:23;;;;;;;6.22;3.88;;;;;;;18.11;69.90;99402.47;3411742;28;20143;-70
2021/06/11 06:07:04;;;;;;;4.43;3.65;;;;;;;18.11;70.08;99402.47;3415894;29;20047;-70
2021/06/11 06:08:44;;;;;;;4.70;3.50;;;;;;;18.11;69.61;99397.88;3401432;29;20130;-69
2021/06/11 06:10:25;;;;;;;3.60;3.30;;;;;;;18.13;69.86;99393.06;3412189;29;20598;-69
2021/06/11 06:12:06;;;;;;;8.20;4.82;;;;;;;18.17;70.29;99398.75;3415404;29;20094;-69
2021/06/11 06:13:47;;;;;;;5.95;4.78;;;;;;;18.17;69.81;99396.88;3414900;29;20114;-70
2021/06/11 06:15:28;;;;;;;4.20;3.80;;;;;;;18.17;69.59;99393.38;3415245;29;20046;-69
2021/06/11 06:17:09;;;;;;;4.70;4.00;;;;;;;18.17;70.02;99396.88;3415690;29;20043;-68
2021/06/11 06:18:49;;;;;;;5.20;4.18;;;;;;;18.17;69.96;99394.19;3415369;29;20035;-70
2021/06/11 06:20:31;;;;;;;5.43;4.63;;;;;;;18.16;69.77;99394.44;3414955;29;20052;-70
2021/06/11 06:22:12;;;;;;;7.18;4.15;;;;;;;18.17;69.61;99406.84;3413777;29;20051;-70
2021/06/11 06:23:53;;;;;;;4.88;4.05;;;;;;;18.17;69.95;99407.66;3414777;29;20042;-69
2021/06/11 06:25:34;;;;;;;7.45;4.88;;;;;;;18.16;69.88;99400.66;3415965;29;20130;-70
2021/06/11 06:27:15;;;;;;;3.97;3.67;;;;;;;18.15;69.82;99409.81;3415764;29;20414;-69
2021/06/11 06:29:05;;;;;;;6.85;4.43;;;;;;;18.18;69.82;99403.91;3388250;29;20106;-69
2021/06/11 06:30:46;;;;;;;8.40;4.80;;;;;;;18.18;69.79;99408.50;3413003;29;20494;-71
2021/06/11 06:32:29;;;;;;;4.43;4.00;;;;;;;18.18;69.79;99408.50;3415774;29;20082;-70
2021/06/11 06:34:10;;;;;;;7.43;4.53;;;;;;;18.18;69.68;99409.31;3414799;29;20430;-70
2021/06/11 06:35:51;;;;;;;5.23;4.27;;;;;;;18.19;69.82;99400.13;3414621;29;20130;-69
2021/06/11 06:37:32;;;;;;;5.93;4.60;;;;;;;18.20;69.38;99407.19;3415057;29;20142;-69
2021/06/11 06:39:12;;;;;;;8.13;4.80;;;;;;;18.26;69.71;99411.56;3414895;29;20043;-69
2021/06/11 06:41:00;;;;;;;5.43;4.93;;;;;;;18.29;69.58;99404.84;3414993;29;20491;-68
2021/06/11 06:42:42;;;;;;;9.00;4.85;;;;;;;18.33;69.43;99405.97;3401037;29;20126;-69
2021/06/11 06:44:22;;;;;;;6.00;4.55;;;;;;;18.36;69.09;99410.06;3411875;29;20073;-70
2021/06/11 06:46:05;;;;;;;5.38;4.63;;;;;;;18.38;69.39;99403.34;3414707;29;20059;-70
2021/06/11 06:47:46;;;;;;;10.13;5.60;;;;;;;18.43;69.37;99407.97;3415166;29;20536;-69
2021/06/11 06:49:27;;;;;;;5.45;4.95;;;;;;;18.47;69.30;99406.41;3415100;29;20043;-69
2021/06/11 06:51:09;;;;;;;6.47;4.90;;;;;;;18.49;69.29;99415.88;3414805;29;20628;-71
2021/06/11 06:52:53;;;;;;;5.18;4.68;;;;;;;18.55;69.69;99408.63;3414717;29;20043;-69
2021/06/11 06:54:34;;;;;;;5.32;4.65;;;;;;;18.58;69.58;99402.72;3414152;29;20541;-68
2021/06/11 06:56:15;;;;;;;6.70;4.97;;;;;;;18.64;69.20;99409.84;3401092;29;20134;-69
2021/06/11 06:57:56;;;;;;;6.60;5.65;;;;;;;18.70;69.31;99405.28;3412281;29;20051;-69
2021/06/11 06:59:36;;;;;;;5.50;4.90;;;;;;;18.71;68.98;99402.31;3415169;29;20101;-69
2021/06/11 07:01:18;;;;;;;11.35;7.72;;;;;;;18.76;68.74;99408.88;3415294;29;20134;-69
2021/06/11 07:03:02;;;;;;;10.75;6.63;;;;;;;18.78;68.96;99406.75;3414420;29;20604;-69
2021/06/11 07:04:43;;;;;;;9.35;6.97;;;;;;;18.82;68.90;99413.25;3400687;29;20051;-70
2021/06/11 07:06:24;;;;;;;10.33;6.73;;;;;;;18.85;68.90;99404.66;3412127;29;20129;-70
2021/06/11 07:08:05;;;;;;;7.22;6.25;;;;;;;18.86;68.80;99408.97;3414838;29;20050;-69
2021/06/11 07:09:46;;;;;;;6.65;6.00;;;;;;;18.86;68.48;99399.00;3414708;29;20509;-69
2021/06/11 07:11:26;;;;;;;7.30;6.07;;;;;;;18.88;68.52;99404.16;3414635;29;20054;-69
2021/06/11 07:13:11;;;;;;;7.23;6.53;;;;;;;18.90;68.22;99402.00;3399864;29;20040;-70
2021/06/11 07:14:53;;;;;;;7.10;6.10;;;;;;;18.92;68.55;99402.53;3398303;29;20566;-71
2021/06/11 07:16:34;;;;;;;11.23;6.85;;;;;;;18.92;68.34;99407.94;3411942;28;20039;-69
2021/06/11 07:18:15;;;;;;;12.30;7.30;;;;;;;18.92;68.47;99402.53;3387441;29;20100;-69
2021/06/11 07:19:55;;;;;;;6.57;5.87;;;;;;;18.91;68.58;99406.31;3409716;29;20565;-71
2021/06/11 07:21:36;;;;;;;7.38;6.60;;;;;;;18.90;68.32;99404.72;3414367;29;20418;-70
2021/06/11 07:23:17;;;;;;;8.57;7.00;;;;;;;18.87;68.37;99403.34;3412957;29;20039;-70
2021/06/11 07:25:02;;;;;;;6.63;6.03;;;;;;;18.86;68.49;99396.28;3374486;29;20063;-70
2021/06/11 07:26:43;;;;;;;10.40;7.32;;;;;;;18.86;68.72;99403.56;3410151;29;20047;-69
2021/06/11 07:28:26;;;;;;;9.80;7.30;;;;;;;18.86;68.32;99395.47;3414819;29;20047;-69
2021/06/11 07:30:09;;;;;;;7.57;6.55;;;;;;;18.84;68.75;99400.31;3415017;29;20043;-70
2021/06/11 07:31:54;;;;;;;8.85;7.95;;;;;;;18.87;68.75;99407.91;3412467;29;20061;-76
2021/06/11 07:33:35;;;;;;;9.20;6.80;;;;;;;18.87;68.63;99405.19;3400160;29;20078;-72
2021/06/11 07:35:15;;;;;;;8.43;7.63;;;;;;;18.85;68.46;99401.97;3397564;29;20511;-74
2021/06/11 07:36:56;;;;;;;9.73;8.10;;;;;;;18.82;68.88;99402.44;3394856;29;20108;-74
2021/06/11 07:38:37;;;;;;;11.95;8.35;;;;;;;18.79;68.93;99402.97;3396899;29;20035;-71
2021/06/11 07:40:18;;;;;;;12.67;8.47;;;;;;;18.78;68.95;99406.75;3396140;29;20046;-71
2021/06/11 07:42:01;;;;;;;12.07;9.25;;;;;;;18.73;69.15;99397.50;3410609;29;20110;-72
2021/06/11 07:43:43;;;;;;;15.20;8.40;;;;;;;18.76;69.13;99404.28;3390672;29;20303;-72
2021/06/11 07:45:24;;;;;;;12.35;8.18;;;;;;;18.78;69.50;99404.84;3411797;29;20055;-72
2021/06/11 07:47:06;;;;;;;10.10;8.63;;;;;;;18.79;69.56;99405.66;3402055;29;20656;-71
2021/06/11 07:48:48;;;;;;;9.25;7.78;;;;;;;18.81;69.42;99408.94;3410257;28;20134;-70
2021/06/11 07:50:30;;;;;;;10.90;7.97;;;;;;;18.82;69.41;99407.84;3416549;28;20102;-71
2021/06/11 07:52:12;;;;;;;12.68;7.90;;;;;;;18.81;69.42;99408.94;3414342;29;20047;-71
2021/06/11 07:53:53;;;;;;;10.67;7.17;;;;;;;18.82;69.35;99403.28;3414641;29;20134;-72
2021/06/11 07:55:34;;;;;;;13.55;7.28;;;;;;;18.84;69.88;99411.13;3414882;29;20511;-72
2021/06/11 07:57:15;;;;;;;8.85;7.25;;;;;;;18.87;70.02;99406.03;3414922;29;20039;-72
2021/06/11 07:58:55;;;;;;;9.93;7.38;;;;;;;18.88;69.83;99402.25;3400144;29;20039;-72
2021/06/11 08:00:37;;;;;;;19.38;6.57;;;;;;;18.90;69.56;99407.41;3398310;29;20201;-72
2021/06/11 08:02:20;;;;;;;9.85;6.18;;;;;;;18.92;69.63;99397.97;3412228;29;20145;-73